sensor_id;sensor_type;location;lat;lon;timestamp;temperature;humidity
9939;DHT22;5008;50.656;7.188;2024-01-07T05:02:01;4.70;99.90
9939;DHT22;5008;50.656;7.188;2024-01-07T05:04:28;4.60;99.90
9939;DHT22;5008;50.656;7.188;2024-01-07T05:06:54;4.60;99.90
9939;DHT22;5008;50.656;7.188;2024-01-07T05:09:23;4.60;99.90
9939;DHT22;5008;50.656;7.188;2024-01-07T05:11:57;4.60;99.90
9939;DHT22;5008;50.656;7.188;2024-01-07T05:14:24;4.60;99.90
9939;DHT22;5008;50.656;7.188;2024-01-07T05:17:03;4.60;99.90
9939;DHT22;5008;50.656;7.188;2024-01-07T05:19:30;4.50;99.90
9939;DHT22;5008;50.656;7.188;2024-01-07T05:21:58;4.60;99.90
9939;DHT22;5008;50.656;7.188;2024-01-07T05:24:24;4.60;99.90
9939;DHT22;5008;50.656;7.188;2024-01-07T05:26:51;4.50;99.90
9939;DHT22;5008;50.656;7.188;2024-01-07T05:29:19;4.50;99.90
9939;DHT22;5008;50.656;7.188;2024-01-07T05:31:46;4.60;99.90
9939;DHT22;5008;50.656;7.188;2024-01-07T05:34:18;4.50;99.90
9939;DHT22;5008;50.656;7.188;2024-01-07T05:36:44;4.40;99.90
9939;DHT22;5008;50.656;7.188;2024-01-07T05:39:11;4.40;99.90
9939;DHT22;5008;50.656;7.188;2024-01-07T05:41:38;4.40;99.90
9939;DHT22;5008;50.656;7.188;2024-01-07T05:44:06;4.40;99.90
9939;DHT22;5008;50.656;7.188;2024-01-07T05:46:38;4.50;99.90
9939;DHT22;5008;50.656;7.188;2024-01-07T05:49:05;4.30;99.90
9939;DHT22;5008;50.656;7.188;2024-01-07T05:51:31;4.40;99.90
9939;DHT22;5008;50.656;7.188;2024-01-07T05:53:58;4.30;99.90
9939;DHT22;5008;50.656;7.188;2024-01-07T05:56:25;4.30;99.90
9939;DHT22;5008;50.656;7.188;2024-01-07T05:58:52;4.20;99.90
9939;DHT22;5008;50.656;7.188;2024-01-07T06:01:35;4.20;99.90
9939;DHT22;5008;50.656;7.188;2024-01-07T06:04:02;4.20;99.90
9939;DHT22;5008;50.656;7.188;2024-01-07T06:06:29;4.20;99.90
9939;DHT22;5008;50.656;7.188;2024-01-07T06:08:55;4.00;99.90
9939;DHT22;5008;50.656;7.188;2024-01-07T06:11:22;4.10;99.90
9939;DHT22;5008;50.656;7.188;2024-01-07T06:13:49;4.10;99.90
9939;DHT22;5008;50.656;7.188;2024-01-07T06:16:16;4.10;99.90
9939;DHT22;5008;50.656;7.188;2024-01-07T06:18:44;4.00;99.90
9939;DHT22;5008;50.656;7.188;2024-01-07T06:21:11;4.00;99.90
9939;DHT22;5008;50.656;7.188;2024-01-07T06:23:37;4.10;99.90
9939;DHT22;5008;50.656;7.188;2024-01-07T06:26:04;4.10;99.90
9939;DHT22;5008;50.656;7.188;2024-01-07T06:28:31;4.10;99.90
9939;DHT22;5008;50.656;7.188;2024-01-07T06:30:58;4.00;99.90
9939;DHT22;5008;50.656;7.188;2024-01-07T06:33:25;4.10;99.90
9939;DHT22;5008;50.656;7.188;2024-01-07T06:35:53;4.10;99.90
9939;DHT22;5008;50.656;7.188;2024-01-07T06:38:20;4.00;99.90
9939;DHT22;5008;50.656;7.188;2024-01-07T06:40:47;4.00;99.90
9939;DHT22;5008;50.656;7.188;2024-01-07T06:43:13;4.10;99.90
9939;DHT22;5008;50.656;7.188;2024-01-07T06:45:40;4.00;99.90
9939;DHT22;5008;50.656;7.188;2024-01-07T06:48:07;4.00;99.90
9939;DHT22;5008;50.656;7.188;2024-01-07T06:50:34;4.00;99.90
9939;DHT22;5008;50.656;7.188;2024-01-07T06:53:03;4.00;99.90
9939;DHT22;5008;50.656;7.188;2024-01-07T06:55:29;4.10;99.90
9939;DHT22;5008;50.656;7.188;2024-01-07T06:57:56;4.00;99.90
9939;DHT22;5008;50.656;7.188;2024-01-07T07:00:23;4.00;99.90
9939;DHT22;5008;50.656;7.188;2024-01-07T07:02:50;4.00;99.90
9939;DHT22;5008;50.656;7.188;2024-01-07T07:05:16;4.10;99.90
9939;DHT22;5008;50.656;7.188;2024-01-07T07:07:46;4.00;99.90
9939;DHT22;5008;50.656;7.188;2024-01-07T07:10:15;4.00;99.90
9939;DHT22;5008;50.656;7.188;2024-01-07T07:12:41;4.00;99.90
9939;DHT22;5008;50.656;7.188;2024-01-07T07:15:08;4.10;99.90
9939;DHT22;5008;50.656;7.188;2024-01-07T07:17:36;4.00;99.90
9939;DHT22;5008;50.656;7.188;2024-01-07T07:20:03;4.10;99.90
9939;DHT22;5008;50.656;7.188;2024-01-07T07:22:30;4.10;99.90
9939;DHT22;5008;50.656;7.188;2024-01-07T07:24:57;4.10;99.90
9939;DHT22;5008;50.656;7.188;2024-01-07T07:27:25;4.10;99.90
9939;DHT22;5008;50.656;7.188;2024-01-07T07:29:52;4.10;99.90
9939;DHT22;5008;50.656;7.188;2024-01-07T07:32:21;4.20;99.90
9939;DHT22;5008;50.656;7.188;2024-01-07T07:34:48;4.20;99.90
9939;DHT22;5008;50.656;7.188;2024-01-07T07:37:15;4.20;99.90
9939;DHT22;5008;50.656;7.188;2024-01-07T07:39:42;4.20;99.90
9939;DHT22;5008;50.656;7.188;2024-01-07T07:42:09;4.20;99.90
9939;DHT22;5008;50.656;7.188;2024-01-07T07:44:38;4.20;99.90
9939;DHT22;5008;50.656;7.188;2024-01-07T07:47:05;4.20;99.90
9939;DHT22;5008;50.656;7.188;2024-01-07T07:49:33;4.20;99.90
9939;DHT22;5008;50.656;7.188;2024-01-07T07:52:01;4.20;99.90
9939;DHT22;5008;50.656;7.188;2024-01-07T07:54:27;4.20;99.90
9939;DHT22;5008;50.656;7.188;2024-01-07T07:56:54;4.20;99.90
9939;DHT22;5008;50.656;7.188;2024-01-07T07:59:21;4.10;99.90
9939;DHT22;5008;50.656;7.188;2024-01-07T08:01:49;4.10;99.90
9939;DHT22;5008;50.656;7.188;2024-01-07T08:04:16;4.10;99.90
9939;DHT22;5008;50.656;7.188;2024-01-07T08:06:43;4.10;99.90
9939;DHT22;5008;50.656;7.188;2024-01-07T08:09:10;4.20;99.90
9939;DHT22;5008;50.656;7.188;2024-01-07T08:11:37;4.10;99.90
9939;DHT22;5008;50.656;7.188;2024-01-07T08:14:04;4.10;99.90
9939;DHT22;5008;50.656;7.188;2024-01-07T08:16:31;4.10;99.90
9939;DHT22;5008;50.656;7.188;2024-01-07T08:18:59;4.10;99.90
9939;DHT22;5008;50.656;7.188;2024-01-07T08:21:26;4.10;99.90
9939;DHT22;5008;50.656;7.188;2024-01-07T08:23:53;4.10;99.90
9939;DHT22;5008;50.656;7.188;2024-01-07T08:26:20;4.10;99.90
9939;DHT22;5008;50.656;7.188;2024-01-07T08:28:47;4.20;99.90
9939;DHT22;5008;50.656;7.188;2024-01-07T08:31:13;4.20;99.90
9939;DHT22;5008;50.656;7.188;2024-01-07T08:33:40;4.10;99.90
9939;DHT22;5008;50.656;7.188;2024-01-07T08:36:08;4.20;99.90
9939;DHT22;5008;50.656;7.188;2024-01-07T08:38:35;4.20;99.90
9939;DHT22;5008;50.656;7.188;2024-01-07T08:41:02;4.20;99.90
9939;DHT22;5008;50.656;7.188;2024-01-07T08:43:29;4.20;99.90
9939;DHT22;5008;50.656;7.188;2024-01-07T08:45:56;4.10;99.90
9939;DHT22;5008;50.656;7.188;2024-01-07T08:48:23;4.20;99.90
9939;DHT22;5008;50.656;7.188;2024-01-07T08:50:50;4.20;99.90
9939;DHT22;5008;50.656;7.188;2024-01-07T08:53:18;4.20;99.90
9939;DHT22;5008;50.656;7.188;2024-01-07T08:55:45;4.30;99.90
9939;DHT22;5008;50.656;7.188;2024-01-07T08:58:12;4.30;99.90
9939;DHT22;5008;50.656;7.188;2024-01-07T09:00:40;4.20;99.90
9939;DHT22;5008;50.656;7.188;2024-01-07T09:03:07;4.20;99.90
9939;DHT22;5008;50.656;7.188;2024-01-07T09:05:34;4.20;99.90
9939;DHT22;5008;50.656;7.188;2024-01-07T09:08:01;4.20;99.90
9939;DHT22;5008;50.656;7.188;2024-01-07T09:10:29;4.30;99.90
9939;DHT22;5008;50.656;7.188;2024-01-07T09:12:55;4.30;99.90
9939;DHT22;5008;50.656;7.188;2024-01-07T09:15:22;4.30;99.90
9939;DHT22;5008;50.656;7.188;2024-01-07T09:17:49;4.20;99.90
9939;DHT22;5008;50.656;7.188;2024-01-07T09:20:16;4.20;99.90
9939;DHT22;5008;50.656;7.188;2024-01-07T09:22:43;4.20;99.90
9939;DHT22;5008;50.656;7.188;2024-01-07T09:25:10;4.20;99.90
9939;DHT22;5008;50.656;7.188;2024-01-07T09:27:38;4.30;99.90
9939;DHT22;5008;50.656;7.188;2024-01-07T09:30:06;4.30;99.90
9939;DHT22;5008;50.656;7.188;2024-01-07T09:32:36;4.30;99.90
9939;DHT22;5008;50.656;7.188;2024-01-07T09:35:03;4.30;99.90
9939;DHT22;5008;50.656;7.188;2024-01-07T09:37:31;4.30;99.90
9939;DHT22;5008;50.656;7.188;2024-01-07T09:39:58;4.30;99.90
9939;DHT22;5008;50.656;7.188;2024-01-07T09:42:25;4.30;99.90
9939;DHT22;5008;50.656;7.188;2024-01-07T09:44:53;4.30;99.90
9939;DHT22;5008;50.656;7.188;2024-01-07T09:47:20;4.30;99.90
9939;DHT22;5008;50.656;7.188;2024-01-07T09:49:49;4.40;99.90
9939;DHT22;5008;50.656;7.188;2024-01-07T09:52:16;4.40;99.90
9939;DHT22;5008;50.656;7.188;2024-01-07T09:54:48;4.40;99.90
9939;DHT22;5008;50.656;7.188;2024-01-07T09:57:17;4.40;99.90
9939;DHT22;5008;50.656;7.188;2024-01-07T09:59:45;4.40;99.90
9939;DHT22;5008;50.656;7.188;2024-01-07T10:02:15;4.40;99.90
9939;DHT22;5008;50.656;7.188;2024-01-07T10:04:42;4.40;99.90
9939;DHT22;5008;50.656;7.188;2024-01-07T10:07:10;4.50;99.90
9939;DHT22;5008;50.656;7.188;2024-01-07T10:09:40;4.40;99.90
9939;DHT22;5008;50.656;7.188;2024-01-07T10:12:08;4.50;99.90
9939;DHT22;5008;50.656;7.188;2024-01-07T10:14:35;4.50;99.90
9939;DHT22;5008;50.656;7.188;2024-01-07T10:17:01;4.50;99.90
9939;DHT22;5008;50.656;7.188;2024-01-07T10:19:30;4.50;99.90
9939;DHT22;5008;50.656;7.188;2024-01-07T10:21:59;4.60;99.90
9939;DHT22;5008;50.656;7.188;2024-01-07T10:24:35;4.70;99.90
9939;DHT22;5008;50.656;7.188;2024-01-07T10:27:03;4.70;99.90
9939;DHT22;5008;50.656;7.188;2024-01-07T10:29:30;4.80;99.90
9939;DHT22;5008;50.656;7.188;2024-01-07T10:31:57;4.80;99.90
9939;DHT22;5008;50.656;7.188;2024-01-07T10:34:24;4.80;99.90
9939;DHT22;5008;50.656;7.188;2024-01-07T10:36:53;4.70;99.90
9939;DHT22;5008;50.656;7.188;2024-01-07T10:39:21;4.90;99.90
9939;DHT22;5008;50.656;7.188;2024-01-07T10:41:50;4.80;99.90
9939;DHT22;5008;50.656;7.188;2024-01-07T10:44:19;4.70;99.90
9939;DHT22;5008;50.656;7.188;2024-01-07T10:46:46;4.70;99.90
9939;DHT22;5008;50.656;7.188;2024-01-07T10:49:19;4.60;99.90
9939;DHT22;5008;50.656;7.188;2024-01-07T10:51:54;4.60;99.90
9939;DHT22;5008;50.656;7.188;2024-01-07T10:54:24;4.70;99.90
9939;DHT22;5008;50.656;7.188;2024-01-07T10:56:58;4.70;99.90
9939;DHT22;5008;50.656;7.188;2024-01-07T10:59:26;4.60;99.90
9939;DHT22;5008;50.656;7.188;2024-01-07T11:01:53;4.60;99.90
9939;DHT22;5008;50.656;7.188;2024-01-07T11:04:23;4.60;99.90
9939;DHT22;5008;50.656;7.188;2024-01-07T11:07:00;4.60;99.90
9939;DHT22;5008;50.656;7.188;2024-01-07T11:09:35;4.60;99.90
9939;DHT22;5008;50.656;7.188;2024-01-07T11:12:03;4.60;99.90
9939;DHT22;5008;50.656;7.188;2024-01-07T11:14:35;4.70;99.90
9939;DHT22;5008;50.656;7.188;2024-01-07T11:17:02;4.90;99.90
9939;DHT22;5008;50.656;7.188;2024-01-07T11:19:29;4.70;99.90
9939;DHT22;5008;50.656;7.188;2024-01-07T11:22:22;4.60;99.90
9939;DHT22;5008;50.656;7.188;2024-01-07T11:24:50;4.90;99.90
9939;DHT22;5008;50.656;7.188;2024-01-07T11:27:19;4.90;99.90
9939;DHT22;5008;50.656;7.188;2024-01-07T11:29:53;4.90;99.90
9939;DHT22;5008;50.656;7.188;2024-01-07T11:32:22;4.90;99.90
9939;DHT22;5008;50.656;7.188;2024-01-07T11:34:52;4.90;99.90
9939;DHT22;5008;50.656;7.188;2024-01-07T11:37:29;4.90;99.90
9939;DHT22;5008;50.656;7.188;2024-01-07T11:39:57;9.70;99.90
9939;DHT22;5008;50.656;7.188;2024-01-07T11:42:32;11.10;99.90
9939;DHT22;5008;50.656;7.188;2024-01-07T11:45:00;10.80;99.90
9939;DHT22;5008;50.656;7.188;2024-01-07T11:47:31;8.80;99.90
9939;DHT22;5008;50.656;7.188;2024-01-07T11:50:11;7.60;99.90
9939;DHT22;5008;50.656;7.188;2024-01-07T11:52:44;6.60;99.90
9939;DHT22;5008;50.656;7.188;2024-01-07T11:55:15;5.90;99.90
9939;DHT22;5008;50.656;7.188;2024-01-07T11:57:46;5.70;99.90
9939;DHT22;5008;50.656;7.188;2024-01-07T12:00:18;5.40;99.90
9939;DHT22;5008;50.656;7.188;2024-01-07T12:02:46;5.30;99.90
9939;DHT22;5008;50.656;7.188;2024-01-07T12:05:13;5.20;99.90
9939;DHT22;5008;50.656;7.188;2024-01-07T12:07:43;5.10;99.90
9939;DHT22;5008;50.656;7.188;2024-01-07T12:10:10;5.10;99.90
9939;DHT22;5008;50.656;7.188;2024-01-07T12:12:40;5.20;99.90
9939;DHT22;5008;50.656;7.188;2024-01-07T12:15:09;5.20;99.90
9939;DHT22;5008;50.656;7.188;2024-01-07T12:17:47;5.10;99.90
9939;DHT22;5008;50.656;7.188;2024-01-07T12:20:18;5.20;99.90
9939;DHT22;5008;50.656;7.188;2024-01-07T12:22:57;5.10;99.90
9939;DHT22;5008;50.656;7.188;2024-01-07T12:25:41;5.10;99.90
9939;DHT22;5008;50.656;7.188;2024-01-07T12:28:11;5.00;99.90
9939;DHT22;5008;50.656;7.188;2024-01-07T12:30:38;5.00;99.90
9939;DHT22;5008;50.656;7.188;2024-01-07T12:33:09;5.00;99.90
9939;DHT22;5008;50.656;7.188;2024-01-07T12:35:56;5.00;99.90
9939;DHT22;5008;50.656;7.188;2024-01-07T12:38:27;5.10;99.90
9939;DHT22;5008;50.656;7.188;2024-01-07T12:40:54;5.00;99.90
9939;DHT22;5008;50.656;7.188;2024-01-07T12:43:24;4.90;99.90
9939;DHT22;5008;50.656;7.188;2024-01-07T12:45:54;4.90;99.90
9939;DHT22;5008;50.656;7.188;2024-01-07T12:48:23;4.90;99.90
9939;DHT22;5008;50.656;7.188;2024-01-07T12:50:53;4.90;99.90
9939;DHT22;5008;50.656;7.188;2024-01-07T12:53:20;4.90;99.90
9939;DHT22;5008;50.656;7.188;2024-01-07T12:55:48;5.00;99.90
9939;DHT22;5008;50.656;7.188;2024-01-07T12:58:14;5.10;99.90
9939;DHT22;5008;50.656;7.188;2024-01-07T13:00:42;4.90;99.90
9939;DHT22;5008;50.656;7.188;2024-01-07T13:03:09;4.70;99.90
9939;DHT22;5008;50.656;7.188;2024-01-07T13:05:39;4.70;99.90
9939;DHT22;5008;50.656;7.188;2024-01-07T13:08:07;4.60;99.90
9939;DHT22;5008;50.656;7.188;2024-01-07T13:10:34;4.60;99.90
9939;DHT22;5008;50.656;7.188;2024-01-07T13:13:02;4.60;99.90
9939;DHT22;5008;50.656;7.188;2024-01-07T13:15:29;4.60;99.90
9939;DHT22;5008;50.656;7.188;2024-01-07T13:17:57;4.50;99.90
9939;DHT22;5008;50.656;7.188;2024-01-07T13:20:23;4.50;99.90
9939;DHT22;5008;50.656;7.188;2024-01-07T13:22:50;4.40;99.90
9939;DHT22;5008;50.656;7.188;2024-01-07T13:25:17;4.50;99.90
9939;DHT22;5008;50.656;7.188;2024-01-07T13:27:44;4.50;99.90
9939;DHT22;5008;50.656;7.188;2024-01-07T13:30:12;4.50;99.90
9939;DHT22;5008;50.656;7.188;2024-01-07T13:32:39;4.40;99.90
9939;DHT22;5008;50.656;7.188;2024-01-07T13:35:07;4.40;99.90
9939;DHT22;5008;50.656;7.188;2024-01-07T13:37:35;4.50;99.90
9939;DHT22;5008;50.656;7.188;2024-01-07T13:40:03;4.40;99.90
9939;DHT22;5008;50.656;7.188;2024-01-07T13:42:30;4.40;99.90
9939;DHT22;5008;50.656;7.188;2024-01-07T13:44:57;4.40;99.90
9939;DHT22;5008;50.656;7.188;2024-01-07T13:47:25;4.50;99.90
9939;DHT22;5008;50.656;7.188;2024-01-07T13:49:51;4.40;99.90
9939;DHT22;5008;50.656;7.188;2024-01-07T13:52:18;4.40;99.90
9939;DHT22;5008;50.656;7.188;2024-01-07T13:54:45;4.40;99.90
9939;DHT22;5008;50.656;7.188;2024-01-07T13:57:13;4.40;99.90
9939;DHT22;5008;50.656;7.188;2024-01-07T13:59:39;4.40;99.90
9939;DHT22;5008;50.656;7.188;2024-01-07T14:02:07;4.30;99.90
9939;DHT22;5008;50.656;7.188;2024-01-07T14:04:36;4.30;99.90
9939;DHT22;5008;50.656;7.188;2024-01-07T14:07:03;4.30;99.90
9939;DHT22;5008;50.656;7.188;2024-01-07T14:09:30;4.30;99.90
9939;DHT22;5008;50.656;7.188;2024-01-07T14:11:57;4.40;99.90
9939;DHT22;5008;50.656;7.188;2024-01-07T14:14:24;4.30;99.90
9939;DHT22;5008;50.656;7.188;2024-01-07T14:16:51;4.30;99.90
9939;DHT22;5008;50.656;7.188;2024-01-07T14:19:17;4.30;99.90
9939;DHT22;5008;50.656;7.188;2024-01-07T14:21:46;4.30;99.90
9939;DHT22;5008;50.656;7.188;2024-01-07T14:24:13;4.30;99.90
9939;DHT22;5008;50.656;7.188;2024-01-07T14:26:40;4.20;99.90
9939;DHT22;5008;50.656;7.188;2024-01-07T14:29:07;4.20;99.90
9939;DHT22;5008;50.656;7.188;2024-01-07T14:31:34;4.10;99.90
9939;DHT22;5008;50.656;7.188;2024-01-07T14:34:01;4.10;99.90
9939;DHT22;5008;50.656;7.188;2024-01-07T14:36:28;4.20;99.90
9939;DHT22;5008;50.656;7.188;2024-01-07T14:38:56;4.10;99.90
9939;DHT22;5008;50.656;7.188;2024-01-07T14:41:23;4.00;99.90
9939;DHT22;5008;50.656;7.188;2024-01-07T14:43:49;4.00;99.90
9939;DHT22;5008;50.656;7.188;2024-01-07T14:46:16;3.80;99.90
9939;DHT22;5008;50.656;7.188;2024-01-07T14:48:43;3.90;99.90
9939;DHT22;5008;50.656;7.188;2024-01-07T14:51:10;3.80;99.90
9939;DHT22;5008;50.656;7.188;2024-01-07T14:53:37;3.80;99.90
9939;DHT22;5008;50.656;7.188;2024-01-07T14:56:05;4.00;99.90
9939;DHT22;5008;50.656;7.188;2024-01-07T14:58:32;3.80;99.90
9939;DHT22;5008;50.656;7.188;2024-01-07T15:00:59;3.70;99.90
9939;DHT22;5008;50.656;7.188;2024-01-07T15:03:27;3.60;99.90
9939;DHT22;5008;50.656;7.188;2024-01-07T15:05:55;3.60;99.90
9939;DHT22;5008;50.656;7.188;2024-01-07T15:08:21;3.50;99.90
9939;DHT22;5008;50.656;7.188;2024-01-07T15:10:48;3.50;99.90
9939;DHT22;5008;50.656;7.188;2024-01-07T15:13:16;3.40;99.90
9939;DHT22;5008;50.656;7.188;2024-01-07T15:15:43;3.60;99.90
9939;DHT22;5008;50.656;7.188;2024-01-07T15:18:10;3.80;99.90
9939;DHT22;5008;50.656;7.188;2024-01-07T15:20:40;3.90;99.90
9939;DHT22;5008;50.656;7.188;2024-01-07T15:23:10;4.00;99.90
9939;DHT22;5008;50.656;7.188;2024-01-07T15:25:37;4.00;99.90
9939;DHT22;5008;50.656;7.188;2024-01-07T15:28:04;4.00;99.90
9939;DHT22;5008;50.656;7.188;2024-01-07T15:30:33;5.60;99.90
9939;DHT22;5008;50.656;7.188;2024-01-07T15:33:01;6.70;99.90
9939;DHT22;5008;50.656;7.188;2024-01-07T15:35:28;9.30;99.90
9939;DHT22;5008;50.656;7.188;2024-01-07T15:37:56;8.60;99.90
9939;DHT22;5008;50.656;7.188;2024-01-07T15:40:29;6.80;99.90
9939;DHT22;5008;50.656;7.188;2024-01-07T15:42:56;5.70;99.90
9939;DHT22;5008;50.656;7.188;2024-01-07T15:45:23;5.00;99.90
9939;DHT22;5008;50.656;7.188;2024-01-07T15:47:51;4.80;99.90
9939;DHT22;5008;50.656;7.188;2024-01-07T15:50:18;5.10;99.90
9939;DHT22;5008;50.656;7.188;2024-01-07T15:52:45;4.60;99.90
9939;DHT22;5008;50.656;7.188;2024-01-07T15:55:14;4.50;99.90
9939;DHT22;5008;50.656;7.188;2024-01-07T15:57:41;4.80;99.90
9939;DHT22;5008;50.656;7.188;2024-01-07T16:00:11;5.10;99.90
9939;DHT22;5008;50.656;7.188;2024-01-07T16:02:40;4.60;99.90
9939;DHT22;5008;50.656;7.188;2024-01-07T16:05:09;4.50;99.90
9939;DHT22;5008;50.656;7.188;2024-01-07T16:07:36;5.80;99.90
9939;DHT22;5008;50.656;7.188;2024-01-07T16:10:04;5.70;99.90
9939;DHT22;5008;50.656;7.188;2024-01-07T16:12:34;6.10;99.90
9939;DHT22;5008;50.656;7.188;2024-01-07T16:15:01;5.50;99.90
9939;DHT22;5008;50.656;7.188;2024-01-07T16:17:29;6.30;99.90
9939;DHT22;5008;50.656;7.188;2024-01-07T16:19:59;6.50;99.90
9939;DHT22;5008;50.656;7.188;2024-01-07T16:22:28;5.50;99.90
9939;DHT22;5008;50.656;7.188;2024-01-07T16:24:55;5.20;99.90
9939;DHT22;5008;50.656;7.188;2024-01-07T16:27:22;9.10;99.90
9939;DHT22;5008;50.656;7.188;2024-01-07T16:29:49;9.20;99.90
9939;DHT22;5008;50.656;7.188;2024-01-07T16:32:16;7.60;99.90
9939;DHT22;5008;50.656;7.188;2024-01-07T16:34:44;7.70;99.90
9939;DHT22;5008;50.656;7.188;2024-01-07T16:37:12;5.90;99.90
9939;DHT22;5008;50.656;7.188;2024-01-07T16:39:41;4.70;99.90
9939;DHT22;5008;50.656;7.188;2024-01-07T16:42:07;4.00;99.90
9939;DHT22;5008;50.656;7.188;2024-01-07T16:44:34;3.60;99.90
9939;DHT22;5008;50.656;7.188;2024-01-07T16:47:02;3.50;99.90
9939;DHT22;5008;50.656;7.188;2024-01-07T16:49:32;3.30;99.90
9939;DHT22;5008;50.656;7.188;2024-01-07T16:51:59;3.10;99.90
9939;DHT22;5008;50.656;7.188;2024-01-07T16:54:26;3.00;99.90
9939;DHT22;5008;50.656;7.188;2024-01-07T16:56:54;3.20;99.90
9939;DHT22;5008;50.656;7.188;2024-01-07T16:59:21;3.20;99.90
9939;DHT22;5008;50.656;7.188;2024-01-07T17:01:50;3.30;99.90
9939;DHT22;5008;50.656;7.188;2024-01-07T17:04:16;3.20;99.90
9939;DHT22;5008;50.656;7.188;2024-01-07T17:06:45;3.00;99.90
9939;DHT22;5008;50.656;7.188;2024-01-07T17:09:13;2.90;99.90
9939;DHT22;5008;50.656;7.188;2024-01-07T17:11:41;2.80;99.90
9939;DHT22;5008;50.656;7.188;2024-01-07T17:14:09;2.70;99.90
9939;DHT22;5008;50.656;7.188;2024-01-07T17:16:36;2.70;99.90
9939;DHT22;5008;50.656;7.188;2024-01-07T17:19:03;2.70;99.90
9939;DHT22;5008;50.656;7.188;2024-01-07T17:21:30;2.70;99.90
9939;DHT22;5008;50.656;7.188;2024-01-07T17:23:56;2.60;99.90
9939;DHT22;5008;50.656;7.188;2024-01-07T17:26:23;2.60;99.90
9939;DHT22;5008;50.656;7.188;2024-01-07T17:28:50;2.60;99.90
9939;DHT22;5008;50.656;7.188;2024-01-07T17:31:18;2.60;99.90
9939;DHT22;5008;50.656;7.188;2024-01-07T17:33:45;2.50;99.90
9939;DHT22;5008;50.656;7.188;2024-01-07T17:36:12;2.50;99.90
9939;DHT22;5008;50.656;7.188;2024-01-07T17:38:42;2.50;99.90
9939;DHT22;5008;50.656;7.188;2024-01-07T17:41:10;2.50;99.90
9939;DHT22;5008;50.656;7.188;2024-01-07T17:43:37;2.40;99.90
9939;DHT22;5008;50.656;7.188;2024-01-07T17:46:06;2.40;99.90
9939;DHT22;5008;50.656;7.188;2024-01-07T17:48:34;2.40;99.90
9939;DHT22;5008;50.656;7.188;2024-01-07T17:51:01;2.50;99.90
9939;DHT22;5008;50.656;7.188;2024-01-07T17:53:29;2.50;99.90
9939;DHT22;5008;50.656;7.188;2024-01-07T17:55:56;2.40;99.90
9939;DHT22;5008;50.656;7.188;2024-01-07T17:58:24;2.40;99.90
9939;DHT22;5008;50.656;7.188;2024-01-07T18:00:51;2.40;99.90
9939;DHT22;5008;50.656;7.188;2024-01-07T18:03:17;2.40;99.90
9939;DHT22;5008;50.656;7.188;2024-01-07T18:05:46;2.40;99.90
9939;DHT22;5008;50.656;7.188;2024-01-07T18:08:12;2.50;99.90
9939;DHT22;5008;50.656;7.188;2024-01-07T18:10:41;2.40;99.90
9939;DHT22;5008;50.656;7.188;2024-01-07T18:13:08;2.50;99.90
9939;DHT22;5008;50.656;7.188;2024-01-07T18:15:39;2.50;99.90
9939;DHT22;5008;50.656;7.188;2024-01-07T18:18:06;2.60;99.90
9939;DHT22;5008;50.656;7.188;2024-01-07T18:20:36;2.60;99.90
9939;DHT22;5008;50.656;7.188;2024-01-07T18:23:04;2.50;99.90
9939;DHT22;5008;50.656;7.188;2024-01-07T18:25:31;2.60;99.90
9939;DHT22;5008;50.656;7.188;2024-01-07T18:27:58;2.50;99.90
9939;DHT22;5008;50.656;7.188;2024-01-07T18:30:25;2.50;99.90
9939;DHT22;5008;50.656;7.188;2024-01-07T18:32:52;2.50;99.90
9939;DHT22;5008;50.656;7.188;2024-01-07T18:35:18;2.50;99.90
9939;DHT22;5008;50.656;7.188;2024-01-07T18:37:45;2.50;99.90
9939;DHT22;5008;50.656;7.188;2024-01-07T18:40:17;2.50;99.90
9939;DHT22;5008;50.656;7.188;2024-01-07T18:42:44;2.50;99.90
9939;DHT22;5008;50.656;7.188;2024-01-07T18:45:12;2.50;99.90
9939;DHT22;5008;50.656;7.188;2024-01-07T18:47:39;2.50;99.90
9939;DHT22;5008;50.656;7.188;2024-01-07T18:50:07;2.50;99.90
9939;DHT22;5008;50.656;7.188;2024-01-07T18:52:34;2.50;99.90
9939;DHT22;5008;50.656;7.188;2024-01-07T18:55:01;2.50;99.90
9939;DHT22;5008;50.656;7.188;2024-01-07T18:57:30;2.50;99.90
9939;DHT22;5008;50.656;7.188;2024-01-07T18:59:57;2.60;99.90
9939;DHT22;5008;50.656;7.188;2024-01-07T19:02:30;2.60;99.90
9939;DHT22;5008;50.656;7.188;2024-01-07T19:05:00;2.50;99.90
9939;DHT22;5008;50.656;7.188;2024-01-07T19:07:38;2.60;99.90
9939;DHT22;5008;50.656;7.188;2024-01-07T19:10:07;2.60;99.90
9939;DHT22;5008;50.656;7.188;2024-01-07T19:12:37;2.60;99.90
9939;DHT22;5008;50.656;7.188;2024-01-07T19:15:05;2.70;99.90
9939;DHT22;5008;50.656;7.188;2024-01-07T19:17:32;2.70;99.90
9939;DHT22;5008;50.656;7.188;2024-01-07T19:19:59;2.60;99.90
9939;DHT22;5008;50.656;7.188;2024-01-07T19:22:25;2.60;99.90
9939;DHT22;5008;50.656;7.188;2024-01-07T19:24:52;2.50;99.90
9939;DHT22;5008;50.656;7.188;2024-01-07T19:27:19;2.50;99.90
9939;DHT22;5008;50.656;7.188;2024-01-07T19:29:49;2.50;99.90
9939;DHT22;5008;50.656;7.188;2024-01-07T19:32:16;2.60;99.90
9939;DHT22;5008;50.656;7.188;2024-01-07T19:34:43;2.50;99.90
9939;DHT22;5008;50.656;7.188;2024-01-07T19:37:20;2.50;99.90
9939;DHT22;5008;50.656;7.188;2024-01-07T19:39:46;2.50;99.90
9939;DHT22;5008;50.656;7.188;2024-01-07T19:42:13;2.50;99.90
9939;DHT22;5008;50.656;7.188;2024-01-07T19:44:40;2.50;99.90
9939;DHT22;5008;50.656;7.188;2024-01-07T19:47:09;2.50;99.90
9939;DHT22;5008;50.656;7.188;2024-01-07T19:49:37;2.50;99.90
9939;DHT22;5008;50.656;7.188;2024-01-07T19:52:04;2.80;99.90
9939;DHT22;5008;50.656;7.188;2024-01-07T19:54:31;2.70;99.90
9939;DHT22;5008;50.656;7.188;2024-01-07T19:56:58;2.70;99.90
9939;DHT22;5008;50.656;7.188;2024-01-07T19:59:26;2.60;99.90
9939;DHT22;5008;50.656;7.188;2024-01-07T20:01:53;2.70;99.90
9939;DHT22;5008;50.656;7.188;2024-01-07T20:04:21;2.60;99.90
9939;DHT22;5008;50.656;7.188;2024-01-07T20:06:49;2.60;99.90
9939;DHT22;5008;50.656;7.188;2024-01-07T20:09:16;2.60;99.90
9939;DHT22;5008;50.656;7.188;2024-01-07T20:11:43;2.70;99.90
9939;DHT22;5008;50.656;7.188;2024-01-07T20:14:09;2.60;99.90
9939;DHT22;5008;50.656;7.188;2024-01-07T20:16:38;2.60;99.90
9939;DHT22;5008;50.656;7.188;2024-01-07T20:19:05;2.60;99.90
9939;DHT22;5008;50.656;7.188;2024-01-07T20:21:33;2.60;99.90
9939;DHT22;5008;50.656;7.188;2024-01-07T20:24:01;2.70;99.90
9939;DHT22;5008;50.656;7.188;2024-01-07T20:26:29;2.70;99.90
9939;DHT22;5008;50.656;7.188;2024-01-07T20:28:56;2.60;99.90
9939;DHT22;5008;50.656;7.188;2024-01-07T20:31:25;2.70;99.90
9939;DHT22;5008;50.656;7.188;2024-01-07T20:33:54;2.60;99.90
9939;DHT22;5008;50.656;7.188;2024-01-07T20:36:21;2.60;99.90
9939;DHT22;5008;50.656;7.188;2024-01-07T20:38:49;2.60;99.90
9939;DHT22;5008;50.656;7.188;2024-01-07T20:41:16;2.60;99.90
9939;DHT22;5008;50.656;7.188;2024-01-07T20:43:43;2.60;99.90
9939;DHT22;5008;50.656;7.188;2024-01-07T20:46:09;2.70;99.90
9939;DHT22;5008;50.656;7.188;2024-01-07T20:48:36;2.60;99.90
9939;DHT22;5008;50.656;7.188;2024-01-07T20:51:04;2.60;99.90
9939;DHT22;5008;50.656;7.188;2024-01-07T20:53:31;2.60;99.90
9939;DHT22;5008;50.656;7.188;2024-01-07T20:55:59;2.60;99.90
9939;DHT22;5008;50.656;7.188;2024-01-07T20:58:26;2.60;99.90
9939;DHT22;5008;50.656;7.188;2024-01-07T21:00:54;2.60;99.90
9939;DHT22;5008;50.656;7.188;2024-01-07T21:03:21;2.60;99.90
9939;DHT22;5008;50.656;7.188;2024-01-07T21:05:49;2.60;99.90
9939;DHT22;5008;50.656;7.188;2024-01-07T21:08:18;2.70;99.90
9939;DHT22;5008;50.656;7.188;2024-01-07T21:10:45;2.60;99.90
9939;DHT22;5008;50.656;7.188;2024-01-07T21:13:14;2.50;99.90
9939;DHT22;5008;50.656;7.188;2024-01-07T21:15:41;2.60;99.90
9939;DHT22;5008;50.656;7.188;2024-01-07T21:18:08;2.60;99.90
9939;DHT22;5008;50.656;7.188;2024-01-07T21:20:37;2.60;99.90
9939;DHT22;5008;50.656;7.188;2024-01-07T21:23:04;2.60;99.90